CSCL Arctic Ocean — VROD9 — position and weather

sailwx.info

Track history (hours):
 
Tides and Currents Weather Stations Pressure Air Temp Water Temp Dewpoint Dewpoint Depression Visibility Wind Speed Wind Dir Waves Ship Positions

CSCL Arctic Ocean

Last reported at 2018-Feb-23 07:28 UTC. Time now 2018-Feb-24 19:39 UTC.
Position N 01°17' E 103°21'.

Length 400 m; draft 15.7 m.

Type: Ship (hazmat cat A). MMSI: 477967700.

Date/timePositionNaut miles runAvg speedWind from/ knotsBaromVisibWave heightAir tempDewpointWater temp
2018-Feb-23 07:28N 01°17' E 103°21'918.2
2018-Feb-23 06:59N 01°13' E 103°29'918.6
2018-Feb-23 06:30N 01°11' E 103°38'917.1
2018-Feb-23 05:59N 01°09' E 103°46'4 8.0
2018-Feb-23 05:30N 01°12' E 103°49'4 7.6
2018-Feb-23 05:00N 01°16' E 103°46'1 1.5
2018-Feb-23 04:29N 01°16' E 103°47'0 0.0
2018-Feb-23 03:56N 01°16' E 103°47'0 0.0
2018-Feb-23 03:26N 01°16' E 103°47'0 0.0
2018-Feb-23 02:56N 01°16' E 103°47'0 0.0
2018-Feb-23 02:26N 01°16' E 103°47'0 0.0
2018-Feb-23 01:44N 01°16' E 103°47'0 0.1
2018-Feb-23 01:29N 01°16' E 103°47'0 0.0
2018-Feb-23 00:59N 01°16' E 103°47'0 0.1
2018-Feb-23 00:08N 01°16' E 103°47'0 0.2
2018-Feb-22 23:47N 01°16' E 103°47'0 0.0
2018-Feb-22 23:26N 01°16' E 103°47'0 0.0
2018-Feb-22 22:44N 01°16' E 103°47'0 0.0
2018-Feb-22 22:29N 01°16' E 103°47'0 0.0
2018-Feb-22 21:59N 01°16' E 103°47'0 0.0
2018-Feb-22 21:23N 01°16' E 103°47'0 0.0
2018-Feb-22 20:53N 01°16' E 103°47'0 0.0
2018-Feb-22 20:29N 01°16' E 103°47'0 0.0
2018-Feb-22 19:47N 01°16' E 103°47'0 0.0
2018-Feb-22 19:29N 01°16' E 103°47'0 0.0
2018-Feb-22 18:59N 01°16' E 103°47'0 0.0
2018-Feb-22 18:29N 01°16' E 103°47'0 0.0
2018-Feb-22 17:50N 01°16' E 103°47'0 0.0
2018-Feb-22 17:08N 01°16' E 103°47'0 0.0
2018-Feb-22 16:59N 01°16' E 103°47'0 0.1
2018-Feb-22 16:02N 01°16' E 103°47'0 0.3
2018-Feb-22 15:47N 01°16' E 103°47'0 0.0
2018-Feb-22 14:47N 01°16' E 103°47'0 0.0
2018-Feb-22 14:17N 01°16' E 103°47'0 0.0
2018-Feb-22 13:59N 01°16' E 103°47'0 0.0
2018-Feb-22 12:53N 01°16' E 103°47'0 0.0
2018-Feb-22 12:20N 01°16' E 103°47'0 0.0
2018-Feb-22 11:38N 01°16' E 103°47'0 0.4
2018-Feb-22 11:29N 01°16' E 103°47'0 0.1
2018-Feb-22 10:53N 01°16' E 103°47'0 0.0
2018-Feb-22 10:23N 01°16' E 103°47'0 0.0
2018-Feb-22 09:50N 01°16' E 103°47'0 0.0
2018-Feb-22 09:20N 01°16' E 103°47'0 0.0
2018-Feb-22 08:59N 01°16' E 103°47'0 0.0
2018-Feb-22 08:11N 01°16' E 103°47'0 0.0
2018-Feb-22 07:59N 01°16' E 103°47'0 0.0
2018-Feb-22 07:26N 01°16' E 103°47'0 0.0
2018-Feb-22 07:00N 01°16' E 103°47'0 0.5
2018-Feb-22 06:30N 01°16' E 103°47'1 2.1
2018-Feb-22 06:00N 01°15' E 103°46'0 0.7
2018-Feb-22 05:30N 01°15' E 103°46'3 6.8
2018-Feb-22 04:59N 01°13' E 103°49'611.8
2018-Feb-22 04:30N 01°14' E 103°55'510.3
2018-Feb-22 04:00N 01°15' E 103°60'713.7
2018-Feb-22 03:30N 01°16' E 104°06'814.8
2018-Feb-22 02:59N 01°17' E 104°14'813.9
2018-Feb-22 02:27N 01°20' E 104°21'  
2018-Feb-16 13:30N 23°05' E 117°17'917.9
2018-Feb-16 13:00N 23°10' E 117°24'917.5
2018-Feb-16 12:30N 23°15' E 117°32'917.6
2018-Feb-16 12:00N 23°20' E 117°40'917.9
2018-Feb-16 11:29N 23°25' E 117°49'918.2
2018-Feb-16 11:00N 23°29' E 117°57'918.0
2018-Feb-16 10:30N 23°37' E 118°03'1118.2
2018-Feb-16 09:55N 23°46' E 118°08'818.3
2018-Feb-16 09:30N 23°53' E 118°12'918.5
2018-Feb-16 09:00N 24°01' E 118°16'918.3
2018-Feb-16 08:30N 24°10' E 118°19'917.7
2018-Feb-16 08:00N 24°17' E 118°13'815.8
2018-Feb-16 07:29N 24°23' E 118°07'611.8
2018-Feb-16 07:00N 24°26' E 118°02'4 6.0
2018-Feb-16 06:25N 24°27' E 117°58'0 0.2
2018-Feb-16 05:55N 24°27' E 117°58'0 0.0
2018-Feb-16 05:28N 24°27' E 117°58'0 0.0
2018-Feb-16 04:55N 24°27' E 117°58'0 0.0
2018-Feb-16 04:28N 24°27' E 117°58'0 0.0
2018-Feb-16 03:58N 24°27' E 117°58'0 0.0
2018-Feb-16 03:28N 24°27' E 117°58'0 0.0
2018-Feb-16 02:58N 24°27' E 117°58'0 0.0
2018-Feb-16 02:22N 24°27' E 117°58'0 0.0
2018-Feb-16 01:58N 24°27' E 117°58'0 0.0
2018-Feb-16 01:28N 24°27' E 117°58'0 0.0
2018-Feb-16 00:49N 24°27' E 117°58'0 0.0
2018-Feb-16 00:28N 24°27' E 117°58'0 0.0
2018-Feb-15 23:55N 24°27' E 117°58'0 0.0
2018-Feb-15 23:19N 24°27' E 117°58'0 0.2
2018-Feb-15 22:58N 24°27' E 117°58'0 0.1
2018-Feb-15 22:28N 24°27' E 117°58'0 0.0
2018-Feb-15 21:58N 24°27' E 117°58'0 0.0
2018-Feb-15 21:28N 24°27' E 117°58'0 0.0
2018-Feb-15 20:58N 24°27' E 117°58'0 0.0
2018-Feb-15 20:28N 24°27' E 117°58'0 0.0
2018-Feb-15 19:58N 24°27' E 117°58'0 0.0
2018-Feb-15 19:28N 24°27' E 117°58'0 0.0
2018-Feb-15 18:58N 24°27' E 117°58'0 0.0
2018-Feb-15 18:25N 24°27' E 117°58'0 0.0
2018-Feb-15 17:58N 24°27' E 117°58'0 0.0
2018-Feb-15 17:25N 24°27' E 117°58'0 0.1
2018-Feb-15 16:58N 24°27' E 117°58'0 0.1
2018-Feb-15 16:22N 24°27' E 117°58'0 0.0
2018-Feb-15 15:58N 24°27' E 117°58'0 0.0
2018-Feb-15 13:31N 24°27' E 117°58'0 0.2
2018-Feb-15 13:28N 24°27' E 117°58'0 0.0
2018-Feb-15 12:55N 24°27' E 117°58'0 0.0
2018-Feb-15 10:34N 24°27' E 117°58'0 0.0
2018-Feb-15 10:28N 24°27' E 117°58'0 0.0
2018-Feb-15 09:58N 24°27' E 117°58'0 0.1
2018-Feb-15 09:25N 24°27' E 117°58'0 0.1
2018-Feb-15 08:58N 24°27' E 117°58'0 0.0
2018-Feb-15 08:19N 24°27' E 117°58'0 0.0
2018-Feb-15 07:58N 24°27' E 117°58'0 0.0
2018-Feb-15 07:28N 24°27' E 117°58'0 0.0
2018-Feb-15 06:58N 24°27' E 117°58'0 0.0
2018-Feb-15 06:22N 24°27' E 117°58'0 0.0
2018-Feb-15 05:58N 24°27' E 117°58'0 0.4
2018-Feb-15 05:30N 24°27' E 117°59'3 5.9
2018-Feb-15 05:00N 24°26' E 118°02'612.2
2018-Feb-15 04:29N 24°23' E 118°08'611.9
2018-Feb-15 04:00N 24°19' E 118°12'713.7
2018-Feb-15 03:31N 24°13' E 118°17'612.4
2018-Feb-15 03:01N 24°11' E 118°23'1 2.2
2018-Feb-15 02:30N 24°10' E 118°24'3 5.9
2018-Feb-15 02:01N 24°11' E 118°27'713.0
2018-Feb-15 01:30N 24°13' E 118°34'15412.3
2018-Feb-14 12:56N 26°01' E 120°36'613.1
2018-Feb-14 12:30N 26°05' E 120°39'612.8
2018-Feb-14 12:00N 26°11' E 120°43'2112.8
2018-Feb-14 10:24N 26°27' E 120°56'612.8
2018-Feb-14 09:56N 26°32' E 121°00'512.5
2018-Feb-14 09:30N 26°37' E 121°03'712.7
2018-Feb-14 08:58N 26°43' E 121°07'812.7
2018-Feb-14 08:19N 26°50' E 121°12'  
Track history (hours):
 
Tides and Currents Weather Stations Pressure Air Temp Water Temp Dewpoint Dewpoint Depression Visibility Wind Speed Wind Dir Waves Ship Positions

CSCL Arctic Ocean

Last reported at 2018-Feb-23 07:28 UTC. Time now 2018-Feb-24 19:39 UTC.
Position N 01°17' E 103°21'.

Length 400 m; draft 15.7 m.

Type: Ship (hazmat cat A). MMSI: 477967700.

Date/timePositionNaut miles runAvg speedWind from/ knotsBaromVisibWave heightAir tempDewpointWater temp
2018-Feb-23 07:28N 01°17' E 103°21'918.2
2018-Feb-23 06:59N 01°13' E 103°29'918.6
2018-Feb-23 06:30N 01°11' E 103°38'917.1
2018-Feb-23 05:59N 01°09' E 103°46'4 8.0
2018-Feb-23 05:30N 01°12' E 103°49'4 7.6
2018-Feb-23 05:00N 01°16' E 103°46'1 1.5
2018-Feb-23 04:29N 01°16' E 103°47'0 0.0
2018-Feb-23 03:56N 01°16' E 103°47'0 0.0
2018-Feb-23 03:26N 01°16' E 103°47'0 0.0
2018-Feb-23 02:56N 01°16' E 103°47'0 0.0
2018-Feb-23 02:26N 01°16' E 103°47'0 0.0
2018-Feb-23 01:44N 01°16' E 103°47'0 0.1
2018-Feb-23 01:29N 01°16' E 103°47'0 0.0
2018-Feb-23 00:59N 01°16' E 103°47'0 0.1
2018-Feb-23 00:08N 01°16' E 103°47'0 0.2
2018-Feb-22 23:47N 01°16' E 103°47'0 0.0
2018-Feb-22 23:26N 01°16' E 103°47'0 0.0
2018-Feb-22 22:44N 01°16' E 103°47'0 0.0
2018-Feb-22 22:29N 01°16' E 103°47'0 0.0
2018-Feb-22 21:59N 01°16' E 103°47'0 0.0
2018-Feb-22 21:23N 01°16' E 103°47'0 0.0
2018-Feb-22 20:53N 01°16' E 103°47'0 0.0
2018-Feb-22 20:29N 01°16' E 103°47'0 0.0
2018-Feb-22 19:47N 01°16' E 103°47'0 0.0
2018-Feb-22 19:29N 01°16' E 103°47'0 0.0
2018-Feb-22 18:59N 01°16' E 103°47'0 0.0
2018-Feb-22 18:29N 01°16' E 103°47'0 0.0
2018-Feb-22 17:50N 01°16' E 103°47'0 0.0
2018-Feb-22 17:08N 01°16' E 103°47'0 0.0
2018-Feb-22 16:59N 01°16' E 103°47'0 0.1
2018-Feb-22 16:02N 01°16' E 103°47'0 0.3
2018-Feb-22 15:47N 01°16' E 103°47'0 0.0
2018-Feb-22 14:47N 01°16' E 103°47'0 0.0
2018-Feb-22 14:17N 01°16' E 103°47'0 0.0
2018-Feb-22 13:59N 01°16' E 103°47'0 0.0
2018-Feb-22 12:53N 01°16' E 103°47'0 0.0
2018-Feb-22 12:20N 01°16' E 103°47'0 0.0
2018-Feb-22 11:38N 01°16' E 103°47'0 0.4
2018-Feb-22 11:29N 01°16' E 103°47'0 0.1
2018-Feb-22 10:53N 01°16' E 103°47'0 0.0
2018-Feb-22 10:23N 01°16' E 103°47'0 0.0
2018-Feb-22 09:50N 01°16' E 103°47'0 0.0
2018-Feb-22 09:20N 01°16' E 103°47'0 0.0
2018-Feb-22 08:59N 01°16' E 103°47'0 0.0
2018-Feb-22 08:11N 01°16' E 103°47'0 0.0
2018-Feb-22 07:59N 01°16' E 103°47'0 0.0
2018-Feb-22 07:26N 01°16' E 103°47'0 0.0
2018-Feb-22 07:00N 01°16' E 103°47'0 0.5
2018-Feb-22 06:30N 01°16' E 103°47'1 2.1
2018-Feb-22 06:00N 01°15' E 103°46'0 0.7
2018-Feb-22 05:30N 01°15' E 103°46'3 6.8
2018-Feb-22 04:59N 01°13' E 103°49'611.8
2018-Feb-22 04:30N 01°14' E 103°55'510.3
2018-Feb-22 04:00N 01°15' E 103°60'713.7
2018-Feb-22 03:30N 01°16' E 104°06'814.8
2018-Feb-22 02:59N 01°17' E 104°14'813.9
2018-Feb-22 02:27N 01°20' E 104°21'  
2018-Feb-16 13:30N 23°05' E 117°17'917.9
2018-Feb-16 13:00N 23°10' E 117°24'917.5
2018-Feb-16 12:30N 23°15' E 117°32'917.6
2018-Feb-16 12:00N 23°20' E 117°40'917.9
2018-Feb-16 11:29N 23°25' E 117°49'918.2
2018-Feb-16 11:00N 23°29' E 117°57'918.0
2018-Feb-16 10:30N 23°37' E 118°03'1118.2
2018-Feb-16 09:55N 23°46' E 118°08'818.3
2018-Feb-16 09:30N 23°53' E 118°12'918.5
2018-Feb-16 09:00N 24°01' E 118°16'918.3
2018-Feb-16 08:30N 24°10' E 118°19'917.7
2018-Feb-16 08:00N 24°17' E 118°13'815.8
2018-Feb-16 07:29N 24°23' E 118°07'611.8
2018-Feb-16 07:00N 24°26' E 118°02'4 6.0
2018-Feb-16 06:25N 24°27' E 117°58'0 0.2
2018-Feb-16 05:55N 24°27' E 117°58'0 0.0
2018-Feb-16 05:28N 24°27' E 117°58'0 0.0
2018-Feb-16 04:55N 24°27' E 117°58'0 0.0
2018-Feb-16 04:28N 24°27' E 117°58'0 0.0
2018-Feb-16 03:58N 24°27' E 117°58'0 0.0
2018-Feb-16 03:28N 24°27' E 117°58'0 0.0
2018-Feb-16 02:58N 24°27' E 117°58'0 0.0
2018-Feb-16 02:22N 24°27' E 117°58'0 0.0
2018-Feb-16 01:58N 24°27' E 117°58'0 0.0
2018-Feb-16 01:28N 24°27' E 117°58'0 0.0
2018-Feb-16 00:49N 24°27' E 117°58'0 0.0
2018-Feb-16 00:28N 24°27' E 117°58'0 0.0
2018-Feb-15 23:55N 24°27' E 117°58'0 0.0
2018-Feb-15 23:19N 24°27' E 117°58'0 0.2
2018-Feb-15 22:58N 24°27' E 117°58'0 0.1
2018-Feb-15 22:28N 24°27' E 117°58'0 0.0
2018-Feb-15 21:58N 24°27' E 117°58'0 0.0
2018-Feb-15 21:28N 24°27' E 117°58'0 0.0
2018-Feb-15 20:58N 24°27' E 117°58'0 0.0
2018-Feb-15 20:28N 24°27' E 117°58'0 0.0
2018-Feb-15 19:58N 24°27' E 117°58'0 0.0
2018-Feb-15 19:28N 24°27' E 117°58'0 0.0
2018-Feb-15 18:58N 24°27' E 117°58'0 0.0
2018-Feb-15 18:25N 24°27' E 117°58'0 0.0
2018-Feb-15 17:58N 24°27' E 117°58'0 0.0
2018-Feb-15 17:25N 24°27' E 117°58'0 0.1
2018-Feb-15 16:58N 24°27' E 117°58'0 0.1
2018-Feb-15 16:22N 24°27' E 117°58'0 0.0
2018-Feb-15 15:58N 24°27' E 117°58'0 0.0
2018-Feb-15 13:31N 24°27' E 117°58'0 0.2
2018-Feb-15 13:28N 24°27' E 117°58'0 0.0
2018-Feb-15 12:55N 24°27' E 117°58'0 0.0
2018-Feb-15 10:34N 24°27' E 117°58'0 0.0
2018-Feb-15 10:28N 24°27' E 117°58'0 0.0
2018-Feb-15 09:58N 24°27' E 117°58'0 0.1
2018-Feb-15 09:25N 24°27' E 117°58'0 0.1
2018-Feb-15 08:58N 24°27' E 117°58'0 0.0
2018-Feb-15 08:19N 24°27' E 117°58'0 0.0
2018-Feb-15 07:58N 24°27' E 117°58'0 0.0
2018-Feb-15 07:28N 24°27' E 117°58'0 0.0
2018-Feb-15 06:58N 24°27' E 117°58'0 0.0
2018-Feb-15 06:22N 24°27' E 117°58'0 0.0
2018-Feb-15 05:58N 24°27' E 117°58'0 0.4
2018-Feb-15 05:30N 24°27' E 117°59'3 5.9
2018-Feb-15 05:00N 24°26' E 118°02'612.2
2018-Feb-15 04:29N 24°23' E 118°08'611.9
2018-Feb-15 04:00N 24°19' E 118°12'713.7
2018-Feb-15 03:31N 24°13' E 118°17'612.4
2018-Feb-15 03:01N 24°11' E 118°23'1 2.2
2018-Feb-15 02:30N 24°10' E 118°24'3 5.9
2018-Feb-15 02:01N 24°11' E 118°27'713.0
2018-Feb-15 01:30N 24°13' E 118°34'15412.3
2018-Feb-14 12:56N 26°01' E 120°36'613.1
2018-Feb-14 12:30N 26°05' E 120°39'612.8
2018-Feb-14 12:00N 26°11' E 120°43'2112.8
2018-Feb-14 10:24N 26°27' E 120°56'612.8
2018-Feb-14 09:56N 26°32' E 121°00'512.5
2018-Feb-14 09:30N 26°37' E 121°03'712.7
2018-Feb-14 08:58N 26°43' E 121°07'812.7
2018-Feb-14 08:19N 26°50' E 121°12'  

Dump ship's entire track history